createdAt,value
2019-05-19T00:02:03.950Z,100192.25
2019-05-19T00:04:35.148Z,100190.02
2019-05-19T00:07:06.365Z,100192.67
2019-05-19T00:09:37.562Z,100187.77
2019-05-19T00:12:08.889Z,100193.50
2019-05-19T00:14:40.255Z,100190.78
2019-05-19T00:17:11.474Z,100193.84
2019-05-19T00:19:42.728Z,100184.11
2019-05-19T00:22:14.029Z,100184.05
2019-05-19T00:24:45.228Z,100187.08
2019-05-19T00:27:16.423Z,100181.75
2019-05-19T00:29:47.694Z,100176.87
2019-05-19T00:32:18.938Z,100176.83
2019-05-19T00:34:50.323Z,100176.78
2019-05-19T00:37:21.711Z,100173.61
2019-05-19T00:39:52.925Z,100171.33
2019-05-19T00:42:24.260Z,100168.17
2019-05-19T00:44:55.628Z,100169.88
2019-05-19T00:47:26.851Z,100162.75
2019-05-19T00:49:58.139Z,100165.35
2019-05-19T00:52:29.370Z,100161.35
2019-05-19T00:55:00.604Z,100164.43
2019-05-19T00:57:32.173Z,100155.55
2019-05-19T01:00:04.645Z,100162.58
2019-05-19T01:02:36.511Z,100158.55
2019-05-19T01:05:08.851Z,100158.10
2019-05-19T01:07:40.070Z,100153.22
2019-05-19T01:10:11.574Z,100154.52
2019-05-19T01:12:42.999Z,100150.47
2019-05-19T01:15:14.716Z,100152.67
2019-05-19T01:17:45.991Z,100152.19
2019-05-19T01:20:17.385Z,100149.54
2019-05-19T01:22:48.677Z,100148.61
2019-05-19T01:25:20.294Z,100148.16
2019-05-19T01:27:51.550Z,100152.59
2019-05-19T01:30:23.119Z,100154.77
2019-05-19T01:32:54.422Z,100154.29
2019-05-19T01:35:26.046Z,100160.83
2019-05-19T01:37:57.410Z,100158.55
2019-05-19T01:40:28.799Z,100151.86
2019-05-19T01:43:00.129Z,100149.60
2019-05-19T01:45:31.403Z,100142.95
2019-05-19T01:48:02.686Z,100141.14
2019-05-19T01:50:33.918Z,100134.07
2019-05-19T01:53:05.111Z,100137.14
2019-05-19T01:55:36.279Z,100135.80
2019-05-19T01:58:07.494Z,100132.19
2019-05-19T02:00:38.690Z,100127.70
2019-05-19T02:03:09.897Z,100133.91
2019-05-19T02:05:41.117Z,100138.31
2019-05-19T02:08:12.308Z,100144.48
2019-05-19T02:10:43.554Z,100145.75
2019-05-19T02:13:15.074Z,100146.14
2019-05-19T02:15:46.394Z,100143.45
2019-05-19T02:18:17.759Z,100146.95
2019-05-19T02:20:49.062Z,100147.77
2019-05-19T02:23:20.214Z,100154.36
2019-05-19T02:25:51.451Z,100152.02
2019-05-19T02:28:22.770Z,100151.96
2019-05-19T02:30:53.948Z,100145.73
2019-05-19T02:33:25.114Z,100145.71
2019-05-19T02:35:57.381Z,100149.23
2019-05-19T02:38:28.581Z,100143.88
2019-05-19T02:41:01.732Z,100143.00
2019-05-19T02:43:33.457Z,100141.20
2019-05-19T02:46:05.198Z,100143.82
2019-05-19T02:48:36.673Z,100137.56
2019-05-19T02:51:09.315Z,100140.04
2019-05-19T02:53:40.528Z,100142.15
2019-05-19T02:56:11.767Z,100149.13
2019-05-19T02:58:44.572Z,100146.94
2019-05-19T03:01:15.809Z,100145.64
2019-05-19T03:03:47.329Z,100144.73
2019-05-19T03:06:18.656Z,100145.11
2019-05-19T03:08:49.954Z,100145.05
2019-05-19T03:11:21.176Z,100142.40
2019-05-19T03:13:52.422Z,100140.17
2019-05-19T03:16:23.658Z,100146.77
2019-05-19T03:18:54.819Z,100146.79
2019-05-19T03:21:26.061Z,100149.02
2019-05-19T03:23:57.295Z,100145.47
2019-05-19T03:26:28.547Z,100148.53
2019-05-19T03:28:59.834Z,100155.16
2019-05-19T03:31:41.410Z,100156.03
2019-05-19T03:34:12.930Z,100150.70
2019-05-19T03:36:44.127Z,100154.19
2019-05-19T03:39:15.373Z,100153.74
2019-05-19T03:41:46.540Z,100156.81
2019-05-19T03:44:17.809Z,100147.00
2019-05-19T03:46:49.192Z,100159.30
2019-05-19T03:49:20.496Z,100157.92
2019-05-19T03:51:51.851Z,100161.86
2019-05-19T03:54:23.046Z,100158.73
2019-05-19T03:56:54.301Z,100163.19
2019-05-19T03:59:25.499Z,100164.02
2019-05-19T04:01:56.813Z,100165.28
2019-05-19T04:04:28.040Z,100164.77
2019-05-19T04:06:59.243Z,100171.93
2019-05-19T04:09:30.430Z,100167.16
2019-05-19T04:12:01.662Z,100164.56
2019-05-19T04:14:32.839Z,100164.23
2019-05-19T04:17:04.120Z,100167.82
2019-05-19T04:19:35.711Z,100173.14
2019-05-19T04:22:07.084Z,100167.82
2019-05-19T04:24:41.317Z,100169.92
2019-05-19T04:27:12.518Z,100174.73
2019-05-19T04:29:43.720Z,100175.61
2019-05-19T04:32:14.954Z,100176.13
2019-05-19T04:34:46.095Z,100180.99
2019-05-19T04:37:17.364Z,100179.25
2019-05-19T04:39:48.685Z,100176.16
2019-05-19T04:42:19.880Z,100181.93
2019-05-19T04:44:51.282Z,100177.50
2019-05-19T04:47:22.548Z,100178.02
2019-05-19T04:49:53.914Z,100176.75
2019-05-19T04:52:25.090Z,100185.60
2019-05-19T04:54:56.331Z,100182.98
2019-05-19T04:57:27.524Z,100181.69
2019-05-19T04:59:58.797Z,100179.97
2019-05-19T05:02:30.052Z,100184.01
2019-05-19T05:05:01.505Z,100175.58
2019-05-19T05:07:33.071Z,100176.06
2019-05-19T05:10:04.301Z,100174.80
2019-05-19T05:12:35.497Z,100175.73
2019-05-19T05:15:06.704Z,100176.72
2019-05-19T05:17:38.217Z,100177.27
2019-05-19T05:20:10.125Z,100179.55
2019-05-19T05:22:42.458Z,100178.67
2019-05-19T05:25:13.930Z,100172.59
2019-05-19T05:27:45.123Z,100174.45
2019-05-19T05:30:16.744Z,100172.77
2019-05-19T05:32:48.215Z,100167.13
2019-05-19T05:35:19.502Z,100172.05
2019-05-19T05:37:50.636Z,100174.40
2019-05-19T05:40:22.009Z,100174.51
2019-05-19T05:42:53.321Z,100180.83
2019-05-19T05:45:24.658Z,100178.30
2019-05-19T05:47:56.054Z,100178.44
2019-05-19T05:50:27.292Z,100172.78
2019-05-19T05:52:58.564Z,100170.27
2019-05-19T05:55:29.767Z,100171.67
2019-05-19T05:58:00.958Z,100169.55
2019-05-19T06:00:32.399Z,100177.61
2019-05-19T06:03:04.346Z,100172.38
2019-05-19T06:05:35.524Z,100170.26
2019-05-19T06:08:06.974Z,100164.16
2019-05-19T06:10:38.314Z,100161.14
2019-05-19T06:13:09.684Z,100163.04
2019-05-19T06:15:40.928Z,100157.85
2019-05-19T06:18:12.195Z,100164.61
2019-05-19T06:20:44.480Z,100174.91
2019-05-19T06:23:15.661Z,100178.62
2019-05-19T06:25:46.881Z,100181.85
2019-05-19T06:28:18.042Z,100176.67
2019-05-19T06:30:49.275Z,100172.82
2019-05-19T06:33:20.482Z,100171.64
2019-05-19T06:35:51.717Z,100163.80
2019-05-19T06:38:22.994Z,100172.25
2019-05-19T06:40:54.300Z,100175.91
2019-05-19T06:43:25.737Z,100166.66
2019-05-19T06:45:57.159Z,100163.61
2019-05-19T06:48:28.582Z,100164.19
2019-05-19T06:50:59.897Z,100166.91
2019-05-19T06:53:31.146Z,100165.70
2019-05-19T06:56:02.368Z,100159.60
2019-05-19T06:58:33.945Z,100156.64
2019-05-19T07:01:05.169Z,100157.66
2019-05-19T07:03:36.435Z,100151.12
2019-05-19T07:06:07.690Z,100147.22
2019-05-19T07:08:38.879Z,100144.67
2019-05-19T07:11:11.295Z,100150.12
2019-05-19T07:13:42.589Z,100147.48
2019-05-19T07:16:13.846Z,100146.67
2019-05-19T07:18:45.257Z,100142.77
2019-05-19T07:21:16.485Z,100143.70
2019-05-19T07:23:47.689Z,100142.02
2019-05-19T07:26:18.975Z,100144.34
2019-05-19T07:28:50.247Z,100137.72
2019-05-19T07:31:21.365Z,100136.46
2019-05-19T07:33:53.566Z,100135.63
2019-05-19T07:36:24.827Z,100132.62
2019-05-19T07:38:56.028Z,100132.27
2019-05-19T07:41:27.516Z,100125.70
2019-05-19T07:43:58.982Z,100127.53
2019-05-19T07:46:30.278Z,100122.73
2019-05-19T07:49:01.679Z,100124.13
2019-05-19T07:51:32.987Z,100121.95
2019-05-19T07:54:04.325Z,100119.37
2019-05-19T07:56:35.676Z,100117.19
2019-05-19T07:59:08.175Z,100118.13
2019-05-19T08:01:39.413Z,100119.56
2019-05-19T08:04:10.634Z,100111.59
2019-05-19T08:06:41.910Z,100105.37
2019-05-19T08:09:13.127Z,100099.62
2019-05-19T08:11:44.792Z,100104.11
2019-05-19T08:14:16.083Z,100101.92
2019-05-19T08:16:47.410Z,100099.25
2019-05-19T08:19:18.638Z,100097.92
2019-05-19T08:21:49.930Z,100095.28
2019-05-19T08:24:21.102Z,100097.52
2019-05-19T08:26:53.268Z,100095.73
2019-05-19T08:29:25.601Z,100094.81
2019-05-19T08:31:56.807Z,100085.02
2019-05-19T08:34:27.978Z,100081.86
2019-05-19T08:36:59.436Z,100078.73
2019-05-19T08:39:30.772Z,100081.84
2019-05-19T08:42:02.139Z,100078.70
2019-05-19T08:44:33.547Z,100080.47
2019-05-19T08:47:05.091Z,100080.86
2019-05-19T08:49:36.355Z,100086.16
2019-05-19T08:52:07.576Z,100076.28
2019-05-19T08:54:38.846Z,100078.02
2019-05-19T08:57:10.030Z,100073.03
2019-05-19T08:59:41.211Z,100069.47
2019-05-19T09:02:12.458Z,100073.40
2019-05-19T09:04:43.703Z,100069.34
2019-05-19T09:07:14.934Z,100074.20
2019-05-19T09:09:46.175Z,100071.92
2019-05-19T09:12:17.529Z,100074.09
2019-05-19T09:14:48.816Z,100062.91
2019-05-19T09:17:20.286Z,100060.16
2019-05-19T09:19:51.525Z,100054.73
2019-05-19T09:22:22.738Z,100052.42
2019-05-19T09:24:53.980Z,100055.91
2019-05-19T09:27:25.348Z,100042.02
2019-05-19T09:29:56.686Z,100045.51
2019-05-19T09:32:27.944Z,100042.70
2019-05-19T09:34:59.247Z,100037.28
2019-05-19T09:37:30.467Z,100041.27
2019-05-19T09:40:01.720Z,100033.13
2019-05-19T09:42:34.516Z,100035.28
2019-05-19T09:45:06.353Z,100031.17
2019-05-19T09:47:37.952Z,100034.65
2019-05-19T09:50:09.569Z,100028.78
2019-05-19T09:52:40.819Z,100033.13
2019-05-19T09:55:12.364Z,100030.76
2019-05-19T09:57:43.588Z,100023.56
2019-05-19T10:00:15.117Z,100029.34
2019-05-19T10:02:46.593Z,100026.19
2019-05-19T10:05:18.417Z,100023.03
2019-05-19T10:07:49.955Z,100020.73
2019-05-19T10:11:06.080Z,100022.92
2019-05-19T10:14:02.448Z,100014.81
2019-05-19T10:16:33.941Z,100017.78
2019-05-19T10:19:05.327Z,100014.05
2019-05-19T10:21:36.667Z,100014.38
2019-05-19T10:24:08.044Z,100010.36
2019-05-19T10:26:39.231Z,100011.13
2019-05-19T10:29:11.591Z,100011.07
2019-05-19T10:31:42.914Z,100014.14
2019-05-19T10:34:14.130Z,100011.88
2019-05-19T10:36:45.350Z,100002.38
2019-05-19T10:39:16.739Z,100000.48
2019-05-19T10:41:47.905Z,99993.67
2019-05-19T10:44:19.277Z,99995.30
2019-05-19T10:46:50.796Z,99992.44
2019-05-19T10:49:22.261Z,99993.16
2019-05-19T10:51:53.874Z,99995.27
2019-05-19T10:54:25.087Z,99991.53
2019-05-19T10:56:56.493Z,99986.86
2019-05-19T10:59:27.770Z,99985.86
2019-05-19T11:01:59.002Z,99988.43
2019-05-19T11:04:30.134Z,99992.31
2019-05-19T11:07:01.757Z,99990.73
2019-05-19T11:09:33.044Z,99991.81
2019-05-19T11:12:04.354Z,99984.87
2019-05-19T11:14:35.628Z,99994.05
2019-05-19T11:17:07.048Z,99995.22
2019-05-19T11:19:38.387Z,99989.58
2019-05-19T11:22:09.705Z,99991.56
2019-05-19T11:24:40.963Z,99991.73
2019-05-19T11:27:12.130Z,99992.77
2019-05-19T11:29:43.346Z,99990.28
2019-05-19T11:32:14.607Z,99990.10
2019-05-19T11:34:45.854Z,99992.69
2019-05-19T11:37:17.102Z,99982.71
2019-05-19T11:39:48.284Z,99982.71
2019-05-19T11:42:19.474Z,99980.16
2019-05-19T11:44:50.693Z,99986.64
2019-05-19T11:47:21.840Z,99987.23
2019-05-19T11:49:53.245Z,99987.27
2019-05-19T11:52:24.457Z,99983.33
2019-05-19T11:54:55.982Z,99975.73
2019-05-19T11:57:27.221Z,99982.07
2019-05-19T11:59:58.479Z,99981.98
2019-05-19T12:02:29.645Z,99981.98
2019-05-19T12:05:00.874Z,99979.09
2019-05-19T12:07:32.046Z,99975.63
2019-05-19T12:10:03.310Z,99975.28
2019-05-19T12:12:34.539Z,99973.59
2019-05-19T12:15:05.867Z,99968.77
2019-05-19T12:17:37.094Z,99971.81
2019-05-19T12:20:08.571Z,99976.76
2019-05-19T12:22:39.822Z,99973.21
2019-05-19T12:25:11.000Z,99970.13
2019-05-19T12:27:42.245Z,99972.41
2019-05-19T12:30:18.845Z,99968.44
2019-05-19T12:32:50.125Z,99972.23
2019-05-19T12:35:21.399Z,99972.44
2019-05-19T12:37:52.626Z,99970.83
2019-05-19T12:40:23.926Z,99968.64
2019-05-19T12:42:55.526Z,99965.10
2019-05-19T12:45:26.879Z,99960.62
2019-05-19T12:47:58.218Z,99954.71
2019-05-19T12:50:29.570Z,99959.73
2019-05-19T12:53:00.804Z,99954.91
2019-05-19T12:55:31.980Z,99957.59
2019-05-19T12:58:03.218Z,99951.11
2019-05-19T13:00:34.429Z,99956.42
2019-05-19T13:03:07.268Z,99949.50
2019-05-19T13:05:38.488Z,99947.37
2019-05-19T13:08:11.622Z,99944.80
2019-05-19T13:10:43.141Z,99940.80
2019-05-19T13:13:14.472Z,99934.83
2019-05-19T13:15:45.746Z,99928.94
2019-05-19T13:18:16.913Z,99929.45
2019-05-19T13:20:48.161Z,99924.16
2019-05-19T13:23:19.368Z,99926.31
2019-05-19T13:25:50.553Z,99924.78
2019-05-19T13:28:22.717Z,99925.19
2019-05-19T13:30:53.913Z,99925.55
2019-05-19T13:33:25.135Z,99921.84
2019-05-19T13:35:56.546Z,99921.77
2019-05-19T13:38:31.042Z,99913.19
2019-05-19T13:41:02.253Z,99916.16
2019-05-19T13:43:33.622Z,99907.35
2019-05-19T13:46:04.852Z,99911.98
2019-05-19T13:48:36.075Z,99906.53
2019-05-19T13:51:07.340Z,99911.33
2019-05-19T13:53:38.646Z,99907.88
2019-05-19T13:56:09.827Z,99903.52
2019-05-19T13:58:41.066Z,99903.84
2019-05-19T14:01:27.317Z,99913.28
2019-05-19T14:03:47.042Z,99912.05
2019-05-19T14:06:18.303Z,99909.13
2019-05-19T14:08:49.483Z,99909.61
2019-05-19T14:11:20.678Z,99908.31
2019-05-19T14:13:51.946Z,99906.99
2019-05-19T14:16:23.256Z,99898.86
2019-05-19T14:18:54.424Z,99899.08
2019-05-19T14:21:25.653Z,99893.69
2019-05-19T14:23:56.932Z,99892.16
2019-05-19T14:26:28.183Z,99894.80
2019-05-19T14:28:59.673Z,99890.77
2019-05-19T14:31:31.107Z,99893.34
2019-05-19T14:34:02.407Z,99883.96
2019-05-19T14:36:33.622Z,99889.51
2019-05-19T14:39:06.375Z,99884.75
2019-05-19T14:41:41.916Z,99886.19
2019-05-19T14:44:13.138Z,99889.03
2019-05-19T14:46:44.390Z,99880.61
2019-05-19T14:49:15.826Z,99879.89
2019-05-19T14:51:47.118Z,99878.33
2019-05-19T14:54:18.339Z,99882.13
2019-05-19T14:56:49.598Z,99878.59
2019-05-19T14:59:20.851Z,99876.39
2019-05-19T15:01:52.390Z,99876.73
2019-05-19T15:04:23.605Z,99878.64
2019-05-19T15:06:54.974Z,99870.67
2019-05-19T15:09:26.187Z,99876.48
2019-05-19T15:11:57.491Z,99868.52
2019-05-19T15:14:28.700Z,99874.70
2019-05-19T15:16:59.888Z,99871.46
2019-05-19T15:19:31.160Z,99865.44
2019-05-19T15:22:02.448Z,99865.30
2019-05-19T15:24:33.690Z,99862.20
2019-05-19T15:27:04.858Z,99862.86
2019-05-19T15:29:36.109Z,99862.27
2019-05-19T15:32:07.334Z,99862.17
2019-05-19T15:34:38.559Z,99856.64
2019-05-19T15:37:09.677Z,99854.10
2019-05-19T15:39:40.884Z,99853.22
2019-05-19T15:42:12.101Z,99842.23
2019-05-19T15:44:43.326Z,99849.36
2019-05-19T15:47:14.610Z,99837.39
2019-05-19T15:49:45.726Z,99841.42
2019-05-19T15:52:17.001Z,99836.11
2019-05-19T15:54:48.419Z,99834.09
2019-05-19T15:57:19.646Z,99832.50
2019-05-19T15:59:50.851Z,99828.97
2019-05-19T16:02:22.136Z,99827.84
2019-05-19T16:04:53.334Z,99819.87
2019-05-19T16:07:24.696Z,99823.09
2019-05-19T16:09:55.854Z,99822.98
2019-05-19T16:12:27.069Z,99823.69
2019-05-19T16:14:58.338Z,99824.75
2019-05-19T16:17:29.596Z,99811.81
2019-05-19T16:20:00.814Z,99821.91
2019-05-19T16:22:31.948Z,99818.36
2019-05-19T16:25:04.369Z,99807.73
2019-05-19T16:27:35.651Z,99814.70
2019-05-19T16:30:06.999Z,99814.56
2019-05-19T16:32:38.324Z,99811.63
2019-05-19T16:35:09.727Z,99809.11
2019-05-19T16:37:40.904Z,99810.05
2019-05-19T16:40:12.330Z,99807.83
2019-05-19T16:42:43.641Z,99803.91
2019-05-19T16:45:15.009Z,99810.31
2019-05-19T16:47:46.198Z,99802.81
2019-05-19T16:50:17.596Z,99815.08
2019-05-19T16:52:48.922Z,99809.83
2019-05-19T16:55:30.754Z,99804.91
2019-05-19T16:58:02.055Z,99797.24
2019-05-19T17:00:33.437Z,99801.33
2019-05-19T17:03:04.980Z,99798.62
2019-05-19T17:05:36.711Z,99805.86
2019-05-19T17:08:08.116Z,99810.28
2019-05-19T17:10:39.577Z,99803.47
2019-05-19T17:13:10.858Z,99810.50
2019-05-19T17:15:42.309Z,99806.30
2019-05-19T17:18:13.620Z,99805.25
2019-05-19T17:20:44.914Z,99808.30
2019-05-19T17:23:16.132Z,99811.87
2019-05-19T17:25:47.309Z,99809.94
2019-05-19T17:28:18.596Z,99812.89
2019-05-19T17:30:49.845Z,99816.81
2019-05-19T17:33:21.019Z,99816.09
2019-05-19T17:35:52.466Z,99815.69
2019-05-19T17:38:24.119Z,99817.89
2019-05-19T17:40:55.546Z,99822.19
2019-05-19T17:43:26.793Z,99820.67
2019-05-19T17:45:57.980Z,99815.94
2019-05-19T17:48:29.288Z,99815.48
2019-05-19T17:51:00.509Z,99824.16
2019-05-19T17:53:31.761Z,99820.99
2019-05-19T17:56:03.675Z,99822.34
2019-05-19T17:58:34.936Z,99821.19
2019-05-19T18:01:06.275Z,99828.75
2019-05-19T18:03:48.788Z,99836.22
2019-05-19T18:06:20.047Z,99850.56
2019-05-19T18:08:51.450Z,99844.73
2019-05-19T18:11:32.809Z,99848.39
2019-05-19T18:14:06.097Z,99847.54
2019-05-19T18:16:49.875Z,99850.72
2019-05-19T18:19:22.300Z,99852.49
2019-05-19T18:21:53.981Z,99848.81
2019-05-19T18:24:40.339Z,99855.95
2019-05-19T18:27:16.277Z,99851.37
2019-05-19T18:29:52.117Z,99857.17
2019-05-19T18:32:23.604Z,99856.66
2019-05-19T18:34:54.943Z,99863.66
2019-05-19T18:37:26.346Z,99860.75
2019-05-19T18:40:00.492Z,99858.73
2019-05-19T18:42:31.781Z,99862.53
2019-05-19T18:45:04.203Z,99867.72
2019-05-19T18:47:35.400Z,99864.75
2019-05-19T18:50:12.546Z,99871.19
2019-05-19T18:52:48.103Z,99871.83
2019-05-19T18:55:19.654Z,99871.99
2019-05-19T18:57:51.052Z,99864.00
2019-05-19T19:00:38.820Z,99870.39
2019-05-19T19:03:15.372Z,99868.31
2019-05-19T19:05:46.911Z,99871.63
2019-05-19T19:08:18.312Z,99877.56
2019-05-19T19:10:49.456Z,99878.20
2019-05-19T19:13:20.772Z,99879.64
2019-05-19T19:15:52.001Z,99880.27
2019-05-19T19:18:23.186Z,99885.78
2019-05-19T19:20:54.542Z,99884.53
2019-05-19T19:23:25.865Z,99881.05
2019-05-19T19:25:57.098Z,99886.97
2019-05-19T19:28:28.382Z,99890.27
2019-05-19T19:30:59.774Z,99890.81
2019-05-19T19:33:31.045Z,99891.38
2019-05-19T19:36:02.216Z,99896.84
2019-05-19T19:38:33.450Z,99896.93
2019-05-19T19:41:04.738Z,99900.63
2019-05-19T19:43:36.012Z,99907.42
2019-05-19T19:46:07.264Z,99910.64
2019-05-19T19:48:38.582Z,99904.02
2019-05-19T19:51:09.741Z,99899.63
2019-05-19T19:53:40.935Z,99900.59
2019-05-19T19:56:12.940Z,99899.75
2019-05-19T19:58:44.210Z,99894.94
2019-05-19T20:01:15.511Z,99897.25
2019-05-19T20:03:46.868Z,99902.25
2019-05-19T20:06:18.110Z,99898.75
2019-05-19T20:08:49.440Z,99900.58
2019-05-19T20:11:20.816Z,99902.02
2019-05-19T20:13:52.079Z,99902.53
2019-05-19T20:16:23.298Z,99906.19
2019-05-19T20:18:54.521Z,99906.23
2019-05-19T20:21:25.762Z,99913.45
2019-05-19T20:23:56.924Z,99905.48
2019-05-19T20:26:28.317Z,99917.65
2019-05-19T20:28:59.774Z,99920.80
2019-05-19T20:31:31.579Z,99920.87
2019-05-19T20:34:05.078Z,99930.29
2019-05-19T20:36:36.382Z,99925.86
2019-05-19T20:39:07.700Z,99922.77
2019-05-19T20:41:39.056Z,99925.93
2019-05-19T20:44:10.260Z,99923.73
2019-05-19T20:46:41.483Z,99919.77
2019-05-19T20:49:13.048Z,99920.21
2019-05-19T20:51:44.373Z,99920.70
2019-05-19T20:54:15.676Z,99924.31
2019-05-19T20:56:47.144Z,99923.46
2019-05-19T20:59:18.475Z,99922.63
2019-05-19T21:01:49.634Z,99933.81
2019-05-19T21:04:21.062Z,99924.91
2019-05-19T21:06:52.375Z,99924.48
2019-05-19T21:09:23.555Z,99921.41
2019-05-19T21:11:54.859Z,99919.67
2019-05-19T21:14:26.263Z,99921.05
2019-05-19T21:16:57.604Z,99927.75
2019-05-19T21:19:28.901Z,99920.64
2019-05-19T21:22:00.231Z,99923.37
2019-05-19T21:24:31.618Z,99926.06
2019-05-19T21:27:03.035Z,99927.01
2019-05-19T21:29:34.464Z,99925.25
2019-05-19T21:32:05.706Z,99927.94
2019-05-19T21:34:36.917Z,99928.84
2019-05-19T21:37:08.280Z,99928.41
2019-05-19T21:39:39.483Z,99926.20
2019-05-19T21:42:11.061Z,99924.00
2019-05-19T21:44:42.316Z,99920.02
2019-05-19T21:47:13.628Z,99929.41
2019-05-19T21:49:44.891Z,99922.27
2019-05-19T21:52:16.190Z,99915.59
2019-05-19T21:54:47.463Z,99919.20
2019-05-19T21:57:18.947Z,99916.53
2019-05-19T21:59:50.266Z,99911.66
2019-05-19T22:02:21.741Z,99909.47
2019-05-19T22:04:53.140Z,99907.26
2019-05-19T22:07:34.697Z,99913.07
2019-05-19T22:10:06.380Z,99908.63
2019-05-19T22:12:37.640Z,99909.98
2019-05-19T22:15:11.672Z,99909.11
2019-05-19T22:17:42.880Z,99912.67
2019-05-19T22:20:14.078Z,99908.25
2019-05-19T22:22:45.322Z,99909.61
2019-05-19T22:25:16.547Z,99912.30
2019-05-19T22:27:47.792Z,99920.30
2019-05-19T22:30:19.353Z,99915.85
2019-05-19T22:32:50.942Z,99919.45
2019-05-19T22:35:22.538Z,99914.98
2019-05-19T22:37:53.807Z,99912.77
2019-05-19T22:40:25.042Z,99907.02
2019-05-19T22:42:56.285Z,99903.45
2019-05-19T22:45:27.506Z,99903.87
2019-05-19T22:47:58.738Z,99902.98
2019-05-19T22:50:29.925Z,99896.33
2019-05-19T22:53:01.185Z,99892.31
2019-05-19T22:55:32.432Z,99892.78
2019-05-19T22:58:03.801Z,99888.34
2019-05-19T23:00:35.184Z,99887.02
2019-05-19T23:03:06.495Z,99885.68
2019-05-19T23:05:37.933Z,99885.70
2019-05-19T23:08:09.251Z,99884.80
2019-05-19T23:10:40.449Z,99886.59
2019-05-19T23:13:11.808Z,99881.27
2019-05-19T23:15:42.993Z,99886.16
2019-05-19T23:18:15.373Z,99884.38
2019-05-19T23:20:46.831Z,99893.73
2019-05-19T23:23:17.988Z,99887.05
2019-05-19T23:25:49.197Z,99891.06
2019-05-19T23:28:20.513Z,99890.17
2019-05-19T23:30:52.604Z,99888.81
2019-05-19T23:33:23.982Z,99884.39
2019-05-19T23:35:55.215Z,99883.89
2019-05-19T23:38:26.397Z,99887.91
2019-05-19T23:40:58.563Z,99897.22
2019-05-19T23:43:29.773Z,99887.00
2019-05-19T23:46:01.005Z,99892.78
2019-05-19T23:48:32.205Z,99893.66
2019-05-19T23:51:03.411Z,99887.00
2019-05-19T23:53:34.559Z,99882.98
2019-05-19T23:56:06.617Z,99884.75
2019-05-19T23:58:38.050Z,99892.76
